Time;durP1;ratioP1;P1;durP2;ratioP2;P2;SDS_P1;SDS_P2;PMS_P1;PMS_P2;Temp;Humidity;BMP_temperature;BMP_pressure;BME280_temperature;BME280_humidity;BME280_pressure;Samples;Min_cycle;Max_cycle;Signal;HPM_P1;HPM_P2
2022/09/27 00:00:16;;;;;;;2.03;1.77;;;13.10;99.90;;;;;;5041215;28;20188;-66
2022/09/27 00:02:42;;;;;;;1.70;1.47;;;13.20;99.90;;;;;;5037916;28;20646;-66
2022/09/27 00:05:07;;;;;;;2.53;1.93;;;13.10;99.90;;;;;;5027493;28;20305;-66
2022/09/27 00:07:33;;;;;;;1.43;1.33;;;13.10;99.90;;;;;;5029657;28;20192;-66
2022/09/27 00:09:58;;;;;;;4.43;2.10;;;13.10;99.90;;;;;;5016779;28;20287;-66
2022/09/27 00:12:24;;;;;;;2.63;1.60;;;13.10;99.90;;;;;;5025217;28;20211;-67
2022/09/27 00:14:49;;;;;;;2.57;2.17;;;13.10;99.90;;;;;;5013674;28;20197;-66
2022/09/27 00:17:15;;;;;;;3.47;1.67;;;13.10;99.90;;;;;;5026905;28;20207;-66
2022/09/27 00:19:40;;;;;;;2.70;1.73;;;13.00;99.90;;;;;;5033656;28;20218;-65
2022/09/27 00:22:06;;;;;;;4.20;1.93;;;13.00;99.90;;;;;;5025659;28;20853;-66
2022/09/27 00:24:31;;;;;;;1.90;1.70;;;13.00;99.90;;;;;;5027293;28;20650;-66
2022/09/27 00:26:58;;;;;;;1.67;1.57;;;13.00;99.90;;;;;;5035868;28;20610;-66
2022/09/27 00:29:23;;;;;;;3.40;2.37;;;13.00;99.90;;;;;;5013757;28;20232;-66
2022/09/27 00:31:49;;;;;;;1.93;1.63;;;13.00;99.90;;;;;;5027497;28;20219;-66
2022/09/27 00:34:22;;;;;;;1.60;1.50;;;13.00;99.90;;;;;;5021676;28;20230;-67
2022/09/27 00:36:49;;;;;;;2.00;1.87;;;13.00;99.90;;;;;;5020204;28;20282;-66
2022/09/27 00:39:15;;;;;;;3.07;1.97;;;12.90;99.90;;;;;;5017625;28;20204;-66
2022/09/27 00:41:41;;;;;;;1.80;1.50;;;12.90;99.90;;;;;;5032803;28;20203;-66
2022/09/27 00:44:27;;;;;;;2.50;1.50;;;12.90;99.90;;;;;;5040863;28;20250;-66
2022/09/27 00:47:10;;;;;;;1.87;1.40;;;12.90;99.90;;;;;;5036543;28;20191;-66
2022/09/27 00:49:41;;;;;;;2.43;1.70;;;12.90;99.90;;;;;;5013837;28;20198;-66
2022/09/27 00:52:17;;;;;;;2.27;1.77;;;12.90;99.90;;;;;;5020235;28;20592;-66
2022/09/27 00:54:47;;;;;;;2.60;1.70;;;12.90;99.90;;;;;;5018057;28;20188;-66
2022/09/27 00:57:12;;;;;;;2.07;1.60;;;12.90;99.90;;;;;;5040652;28;20195;-65
2022/09/27 00:59:44;;;;;;;3.13;1.90;;;12.90;99.90;;;;;;5031784;28;20201;-65
2022/09/27 01:02:10;;;;;;;2.77;1.97;;;12.90;99.90;;;;;;5008470;28;20206;-66
2022/09/27 01:04:38;;;;;;;1.90;1.77;;;12.90;99.90;;;;;;5026071;28;21100;-65
2022/09/27 01:07:04;;;;;;;1.50;1.40;;;12.90;99.90;;;;;;5030991;28;20195;-66
2022/09/27 01:09:29;;;;;;;1.70;1.60;;;12.90;99.90;;;;;;5024196;28;20200;-66
2022/09/27 01:12:23;;;;;;;2.73;1.60;;;12.90;99.90;;;;;;5031008;28;20190;-66
2022/09/27 01:15:12;;;;;;;1.53;1.43;;;12.90;99.90;;;;;;5017212;28;20206;-66
2022/09/27 01:17:46;;;;;;;3.70;1.57;;;12.90;99.90;;;;;;5020289;28;20198;-66
2022/09/27 01:20:44;;;;;;;1.27;1.17;;;12.90;99.90;;;;;;5033096;28;20202;-66
2022/09/27 01:23:40;;;;;;;3.00;2.20;;;12.90;99.90;;;;;;5020372;28;20230;-65
2022/09/27 01:26:15;;;;;;;2.07;1.63;;;13.00;99.90;;;;;;5021953;28;20249;-66
2022/09/27 01:28:50;;;;;;;1.60;1.50;;;12.90;99.90;;;;;;5016515;28;20617;-67
2022/09/27 01:31:38;;;;;;;2.00;1.60;;;13.00;99.90;;;;;;5014963;28;20191;-66
2022/09/27 01:34:10;;;;;;;1.50;1.40;;;12.90;99.90;;;;;;5025379;28;20575;-67
2022/09/27 01:36:47;;;;;;;3.23;1.87;;;12.90;99.90;;;;;;5020184;28;20730;-66
2022/09/27 01:39:44;;;;;;;1.73;1.63;;;12.90;99.90;;;;;;5020602;28;20202;-66
2022/09/27 01:42:25;;;;;;;3.47;1.27;;;12.90;99.90;;;;;;5022291;28;20618;-66
2022/09/27 01:45:05;;;;;;;1.53;1.43;;;12.90;99.90;;;;;;5011044;28;20183;-66
2022/09/27 01:47:44;;;;;;;1.47;1.37;;;12.90;99.90;;;;;;5010752;28;20225;-66
2022/09/27 01:50:18;;;;;;;1.97;1.17;;;12.90;99.90;;;;;;5025630;28;20183;-65
2022/09/27 01:52:55;;;;;;;4.07;1.43;;;12.90;99.90;;;;;;5011139;28;20232;-66
2022/09/27 01:55:27;;;;;;;1.23;1.13;;;12.90;99.90;;;;;;5016306;28;20192;-66
2022/09/27 01:57:59;;;;;;;2.27;1.80;;;12.90;99.90;;;;;;5017802;28;20955;-66
2022/09/27 02:00:25;;;;;;;1.47;1.37;;;13.00;99.90;;;;;;5015490;28;20199;-66
2022/09/27 02:03:06;;;;;;;1.87;1.50;;;13.00;99.90;;;;;;5032320;28;20223;-66
2022/09/27 02:05:36;;;;;;;2.67;1.27;;;13.00;99.90;;;;;;5012463;28;20191;-65
2022/09/27 02:08:09;;;;;;;1.30;1.20;;;13.00;99.90;;;;;;5018775;28;20202;-66
2022/09/27 02:10:39;;;;;;;3.50;1.90;;;13.10;99.90;;;;;;5012624;28;20305;-65
2022/09/27 02:13:16;;;;;;;2.03;1.93;;;13.00;99.90;;;;;;5041987;28;20215;-66
2022/09/27 02:16:04;;;;;;;1.50;1.33;;;13.00;99.90;;;;;;5028579;28;20198;-65
2022/09/27 02:19:02;;;;;;;1.43;1.20;;;13.00;99.90;;;;;;4993285;28;20212;-65
2022/09/27 02:22:03;;;;;;;1.47;1.37;;;13.00;99.90;;;;;;5016487;28;20934;-66
2022/09/27 02:24:37;;;;;;;1.33;1.23;;;13.00;99.90;;;;;;5009151;28;20212;-66
2022/09/27 02:27:19;;;;;;;1.87;1.60;;;13.00;99.90;;;;;;5005377;28;20687;-66
2022/09/27 02:29:51;;;;;;;1.83;1.30;;;13.00;99.90;;;;;;5014268;28;20306;-65
2022/09/27 02:32:17;;;;;;;0.90;0.90;;;13.00;99.90;;;;;;5007427;28;20188;-66
2022/09/27 02:34:45;;;;;;;1.20;1.10;;;13.00;99.90;;;;;;5024190;28;20298;-65
2022/09/27 02:37:10;;;;;;;1.63;1.33;;;13.10;99.90;;;;;;5032853;28;20302;-68
2022/09/27 02:39:36;;;;;;;1.63;1.50;;;13.10;99.90;;;;;;5023910;28;20310;-67
2022/09/27 02:42:03;;;;;;;1.77;1.47;;;13.10;99.90;;;;;;5029454;28;20272;-67
2022/09/27 02:44:29;;;;;;;1.73;1.40;;;13.10;99.90;;;;;;5024063;28;20647;-67
2022/09/27 02:47:24;;;;;;;2.93;1.57;;;13.10;99.90;;;;;;5038474;28;20195;-68
2022/09/27 02:50:07;;;;;;;1.80;1.70;;;13.10;99.90;;;;;;5022578;28;20302;-67
2022/09/27 02:52:58;;;;;;;1.80;1.53;;;13.10;99.90;;;;;;5009856;28;20241;-67
2022/09/27 02:55:49;;;;;;;1.47;1.37;;;13.20;99.90;;;;;;5017266;28;20289;-67
2022/09/27 02:58:57;;;;;;;1.50;1.27;;;13.10;99.90;;;;;;5024012;28;20237;-67
2022/09/27 03:01:46;;;;;;;1.53;1.27;;;13.10;99.90;;;;;;5019004;28;20207;-67
2022/09/27 03:04:21;;;;;;;1.40;1.30;;;13.10;99.90;;;;;;5020939;28;20300;-68
2022/09/27 03:06:48;;;;;;;1.67;1.50;;;13.20;99.90;;;;;;5027049;28;20287;-67
2022/09/27 03:09:21;;;;;;;3.17;1.80;;;13.20;99.90;;;;;;5032379;28;20285;-67
2022/09/27 03:11:47;;;;;;;4.67;1.40;;;13.20;99.90;;;;;;5039418;28;20270;-67
2022/09/27 03:14:13;;;;;;;3.13;1.30;;;13.20;99.90;;;;;;5032149;28;20200;-67
2022/09/27 03:16:39;;;;;;;1.47;1.27;;;13.20;99.90;;;;;;5046659;28;20196;-67
2022/09/27 03:19:04;;;;;;;1.83;1.60;;;13.20;99.90;;;;;;5027522;28;20200;-67
2022/09/27 03:21:30;;;;;;;1.10;1.10;;;13.20;99.90;;;;;;5028057;28;20200;-67
2022/09/27 03:23:55;;;;;;;3.23;1.60;;;13.20;99.90;;;;;;5034151;28;20199;-67
2022/09/27 03:26:21;;;;;;;2.47;1.47;;;13.20;99.90;;;;;;5042069;28;20554;-66
2022/09/27 03:28:46;;;;;;;1.13;1.10;;;13.20;99.90;;;;;;5031842;28;20207;-66
2022/09/27 03:31:12;;;;;;;2.17;1.20;;;13.20;99.90;;;;;;5038149;28;20556;-66
2022/09/27 03:33:37;;;;;;;1.43;1.33;;;13.10;99.90;;;;;;5034086;28;20203;-66
2022/09/27 03:36:03;;;;;;;1.40;1.30;;;13.10;99.90;;;;;;5032153;28;20202;-67
2022/09/27 03:38:28;;;;;;;1.70;1.60;;;13.10;99.90;;;;;;5030856;28;20236;-68
2022/09/27 03:40:54;;;;;;;1.40;1.30;;;13.10;99.90;;;;;;5026719;28;20188;-68
2022/09/27 03:43:19;;;;;;;1.60;1.50;;;13.10;99.90;;;;;;5039229;28;20582;-68
2022/09/27 03:45:45;;;;;;;1.77;1.67;;;13.10;99.90;;;;;;5028040;28;20179;-68
2022/09/27 03:48:10;;;;;;;3.00;1.60;;;13.00;99.90;;;;;;5029045;28;20254;-67
2022/09/27 03:50:36;;;;;;;2.53;1.60;;;13.10;99.90;;;;;;5021538;28;20238;-68
2022/09/27 03:53:01;;;;;;;1.70;1.60;;;13.00;99.90;;;;;;5026943;28;20266;-67
2022/09/27 03:55:27;;;;;;;3.00;1.80;;;13.00;99.90;;;;;;5027865;28;20277;-67
2022/09/27 03:57:52;;;;;;;1.70;1.60;;;13.00;99.90;;;;;;5035673;28;20194;-67
2022/09/27 04:00:18;;;;;;;2.03;1.70;;;13.00;99.90;;;;;;5027788;28;20187;-67
2022/09/27 04:02:44;;;;;;;1.37;1.33;;;13.00;99.90;;;;;;5034395;28;20620;-67
2022/09/27 04:05:10;;;;;;;2.60;2.40;;;12.90;99.90;;;;;;5018088;28;20208;-68
2022/09/27 04:07:36;;;;;;;2.63;1.90;;;12.90;99.90;;;;;;5034303;28;20212;-67
2022/09/27 04:10:03;;;;;;;2.77;1.80;;;12.90;99.90;;;;;;5023678;28;20218;-67
2022/09/27 04:12:29;;;;;;;2.43;1.60;;;12.80;99.90;;;;;;5039809;28;20729;-68
2022/09/27 04:14:54;;;;;;;2.20;1.80;;;12.80;99.90;;;;;;5020522;28;20203;-68
2022/09/27 04:17:19;;;;;;;2.23;1.53;;;12.80;99.90;;;;;;5028209;28;20203;-67
2022/09/27 04:19:45;;;;;;;3.40;1.77;;;12.80;99.90;;;;;;5029295;28;20219;-67
2022/09/27 04:22:12;;;;;;;2.23;2.03;;;12.80;99.90;;;;;;5030017;28;20300;-68
2022/09/27 04:24:38;;;;;;;1.63;1.53;;;12.70;99.90;;;;;;5029701;28;20286;-69
2022/09/27 04:27:03;;;;;;;2.63;1.97;;;12.70;99.90;;;;;;5026948;28;20278;-68
2022/09/27 04:29:29;;;;;;;3.43;2.00;;;12.80;99.90;;;;;;5030782;28;20235;-68
2022/09/27 04:31:54;;;;;;;2.30;1.50;;;12.70;99.90;;;;;;5026814;28;20198;-68
2022/09/27 04:36:25;;;;;;;1.70;1.60;;;12.70;99.90;;;;;;5031347;28;20269;-69
2022/09/27 04:37:06;;;;;;;2.57;2.00;;;12.80;99.90;;;;;;5026693;28;20421;-68
2022/09/27 04:39:32;;;;;;;2.13;1.90;;;12.80;99.90;;;;;;5029943;28;20210;-67
2022/09/27 04:41:57;;;;;;;2.53;2.33;;;12.70;99.90;;;;;;5044088;28;20201;-68
2022/09/27 04:44:23;;;;;;;4.37;2.23;;;12.70;99.90;;;;;;5031368;28;20233;-68
2022/09/27 04:46:48;;;;;;;2.53;1.80;;;12.60;99.90;;;;;;5031864;28;20191;-68
2022/09/27 04:49:14;;;;;;;2.23;2.13;;;12.60;99.90;;;;;;5032883;28;20237;-67
2022/09/27 04:51:39;;;;;;;5.03;1.80;;;12.60;99.90;;;;;;5040718;28;20584;-68
2022/09/27 04:54:04;;;;;;;2.50;1.73;;;12.50;99.90;;;;;;5028032;28;20239;-68
2022/09/27 04:56:30;;;;;;;3.53;1.70;;;12.50;99.90;;;;;;5026627;28;20553;-67
2022/09/27 04:58:55;;;;;;;2.90;2.13;;;12.50;99.90;;;;;;5025563;28;20202;-67
2022/09/27 05:01:21;;;;;;;3.03;2.20;;;12.40;99.90;;;;;;5032079;28;21152;-67
2022/09/27 05:03:47;;;;;;;3.87;2.03;;;12.40;99.90;;;;;;5035889;28;20218;-66
2022/09/27 05:06:13;;;;;;;2.23;2.13;;;12.40;99.90;;;;;;5018308;28;20310;-66
2022/09/27 05:08:38;;;;;;;2.03;1.80;;;12.40;99.90;;;;;;5031133;28;20202;-67
2022/09/27 05:11:04;;;;;;;2.20;2.10;;;12.30;99.90;;;;;;5026240;28;20206;-67
2022/09/27 05:13:29;;;;;;;3.27;1.97;;;12.30;99.90;;;;;;5028748;28;20553;-66
2022/09/27 05:16:01;;;;;;;1.63;1.53;;;12.30;99.90;;;;;;5018790;28;20198;-66
2022/09/27 05:18:27;;;;;;;1.67;1.57;;;12.30;99.90;;;;;;5025273;28;20213;-67
2022/09/27 05:20:52;;;;;;;2.30;2.10;;;12.30;99.90;;;;;;5015639;28;20207;-67
2022/09/27 05:23:19;;;;;;;2.50;2.30;;;12.30;99.90;;;;;;5025216;28;20261;-66
2022/09/27 05:25:44;;;;;;;3.07;2.33;;;12.30;99.90;;;;;;5025792;28;20195;-66
2022/09/27 05:28:10;;;;;;;4.43;2.27;;;12.30;99.90;;;;;;5031194;28;20198;-66
2022/09/27 05:30:35;;;;;;;4.57;2.47;;;12.30;99.90;;;;;;5025575;28;20185;-68
2022/09/27 05:33:01;;;;;;;3.07;2.50;;;12.20;99.90;;;;;;5034285;28;20565;-68
2022/09/27 05:35:26;;;;;;;2.33;1.90;;;12.20;99.90;;;;;;5019244;28;20254;-67
2022/09/27 05:37:54;;;;;;;3.07;2.30;;;12.20;99.90;;;;;;5038673;28;20666;-68
2022/09/27 05:40:23;;;;;;;5.47;2.40;;;12.20;99.90;;;;;;5024738;28;20215;-68
2022/09/27 05:42:49;;;;;;;3.93;2.43;;;12.20;99.90;;;;;;5031793;28;20230;-68
2022/09/27 05:45:15;;;;;;;3.57;2.53;;;12.10;99.90;;;;;;5016643;28;20245;-68
2022/09/27 05:47:40;;;;;;;2.13;2.03;;;12.20;99.90;;;;;;5028220;28;20199;-68
2022/09/27 05:50:07;;;;;;;4.07;2.27;;;12.20;99.90;;;;;;5023560;28;20310;-67
2022/09/27 05:52:33;;;;;;;5.73;2.20;;;12.20;99.90;;;;;;5036936;28;20239;-68
2022/09/27 05:54:58;;;;;;;4.07;2.20;;;12.30;99.90;;;;;;5027434;28;20356;-68
2022/09/27 05:57:24;;;;;;;2.80;2.60;;;12.30;99.90;;;;;;5026630;28;20194;-67
2022/09/27 05:59:49;;;;;;;2.17;1.97;;;12.40;99.90;;;;;;5028359;28;20290;-67
2022/09/27 06:02:15;;;;;;;2.77;2.57;;;12.40;99.90;;;;;;5040054;28;20218;-66
2022/09/27 06:04:40;;;;;;;2.20;2.10;;;12.40;99.90;;;;;;5030027;28;20207;-67
2022/09/27 06:07:06;;;;;;;3.20;2.30;;;12.40;99.90;;;;;;5044272;28;20972;-66
2022/09/27 06:09:31;;;;;;;2.47;2.27;;;12.40;99.90;;;;;;5021503;28;20200;-67
2022/09/27 06:11:57;;;;;;;3.97;2.70;;;12.30;99.90;;;;;;5037725;28;20208;-67
2022/09/27 06:14:23;;;;;;;2.57;2.37;;;12.30;99.90;;;;;;5027825;28;20308;-67
2022/09/27 06:16:48;;;;;;;3.40;2.30;;;12.30;99.90;;;;;;5044050;28;20450;-67
2022/09/27 06:19:14;;;;;;;2.97;2.10;;;12.30;99.90;;;;;;5023763;28;20210;-67
2022/09/27 06:21:40;;;;;;;2.47;2.27;;;12.30;99.90;;;;;;5028272;28;20198;-67
2022/09/27 06:24:06;;;;;;;3.33;2.10;;;12.30;99.90;;;;;;5027234;28;20589;-67
2022/09/27 06:26:32;;;;;;;2.27;2.07;;;12.30;99.90;;;;;;5014919;28;20321;-67
2022/09/27 06:28:57;;;;;;;4.80;2.20;;;12.40;99.90;;;;;;5026747;28;20253;-67
2022/09/27 06:31:23;;;;;;;2.43;2.23;;;12.40;99.90;;;;;;5026668;28;20185;-67
2022/09/27 06:33:49;;;;;;;23.03;10.57;;;12.50;99.90;;;;;;5037551;28;20199;-67
2022/09/27 06:36:15;;;;;;;15.67;8.70;;;12.50;99.90;;;;;;5029212;28;20217;-66
2022/09/27 06:38:40;;;;;;;5.70;3.43;;;12.60;99.90;;;;;;5042547;28;20212;-67
2022/09/27 06:41:07;;;;;;;6.40;3.33;;;12.60;99.90;;;;;;5017050;28;20184;-66
2022/09/27 06:43:33;;;;;;;2.97;2.70;;;12.60;99.90;;;;;;5030593;28;20262;-66
2022/09/27 06:46:04;;;;;;;2.83;2.23;;;12.60;99.90;;;;;;5018389;28;20187;-66
2022/09/27 06:48:30;;;;;;;3.87;2.37;;;12.50;99.90;;;;;;5027737;28;20305;-67
2022/09/27 06:50:56;;;;;;;3.60;2.10;;;12.50;99.90;;;;;;5033205;28;20229;-67
2022/09/27 06:53:22;;;;;;;5.60;2.23;;;12.50;99.90;;;;;;5037206;28;20292;-66
2022/09/27 06:55:48;;;;;;;4.10;2.13;;;12.50;99.90;;;;;;5027547;28;20315;-67
2022/09/27 07:00:58;;;;;;;3.03;2.53;;;12.50;99.90;;;;;;5018933;28;20205;-66
2022/09/27 07:03:30;;;;;;;4.00;2.27;;;12.50;99.90;;;;;;5031872;28;20220;-69
2022/09/27 07:06:00;;;;;;;2.60;2.40;;;12.60;99.90;;;;;;5018847;28;20267;-69
2022/09/27 07:08:27;;;;;;;2.47;2.00;;;12.60;99.90;;;;;;5026845;28;20306;-66
2022/09/27 07:11:01;;;;;;;2.90;2.27;;;12.60;99.90;;;;;;5017190;28;20189;-69
2022/09/27 07:13:30;;;;;;;2.13;2.03;;;12.70;99.90;;;;;;5012211;28;20206;-68
2022/09/27 07:15:55;;;;;;;4.23;2.47;;;12.80;99.90;;;;;;5026523;28;20197;-67
2022/09/27 07:18:21;;;;;;;2.13;2.03;;;12.80;99.90;;;;;;5041496;28;20351;-67
2022/09/27 07:20:46;;;;;;;2.57;2.30;;;12.70;99.90;;;;;;5021403;28;20213;-68
2022/09/27 07:23:13;;;;;;;3.03;1.87;;;12.70;99.90;;;;;;5038535;28;20207;-69
2022/09/27 07:25:39;;;;;;;3.07;2.30;;;12.60;99.90;;;;;;5018966;28;20203;-69
2022/09/27 07:28:06;;;;;;;2.50;2.30;;;12.60;99.90;;;;;;5043697;28;20268;-70
2022/09/27 07:30:33;;;;;;;3.77;2.73;;;12.60;99.90;;;;;;5028265;28;20214;-70
2022/09/27 07:33:00;;;;;;;3.20;2.10;;;12.60;99.90;;;;;;5028457;28;20261;-70
2022/09/27 07:35:26;;;;;;;3.50;2.57;;;12.70;99.90;;;;;;5029053;28;20204;-66
2022/09/27 07:37:51;;;;;;;2.40;2.30;;;12.80;99.90;;;;;;5033446;28;20738;-66
2022/09/27 07:40:18;;;;;;;2.30;1.93;;;12.80;99.90;;;;;;5027726;28;20202;-66
2022/09/27 07:42:43;;;;;;;5.50;2.63;;;12.90;99.90;;;;;;5042042;28;20291;-68
2022/09/27 07:45:10;;;;;;;2.37;2.13;;;12.90;99.90;;;;;;5031632;28;20574;-68
2022/09/27 07:47:37;;;;;;;3.00;2.53;;;13.00;99.90;;;;;;5047095;28;20204;-65
2022/09/27 07:50:04;;;;;;;1.77;1.67;;;13.00;99.90;;;;;;5023609;28;20247;-66
2022/09/27 07:52:37;;;;;;;2.33;2.23;;;13.00;99.90;;;;;;5040355;28;20245;-66
2022/09/27 07:55:03;;;;;;;3.10;2.37;;;13.00;99.90;;;;;;5016824;28;20619;-66
2022/09/27 07:57:28;;;;;;;2.17;1.97;;;13.00;99.90;;;;;;5031020;28;20210;-64
2022/09/27 07:59:54;;;;;;;2.77;2.17;;;13.00;99.90;;;;;;5032847;28;20200;-65
2022/09/27 08:02:20;;;;;;;2.37;2.17;;;13.00;99.90;;;;;;5022442;28;20685;-67
2022/09/27 08:04:46;;;;;;;3.70;2.40;;;13.10;99.90;;;;;;5034540;28;20302;-65
2022/09/27 08:07:12;;;;;;;2.30;1.97;;;13.10;99.90;;;;;;5029668;28;20241;-64
2022/09/27 08:09:37;;;;;;;2.13;1.93;;;13.10;99.90;;;;;;5024171;28;20202;-65
2022/09/27 08:12:03;;;;;;;2.53;2.00;;;13.10;99.90;;;;;;5030311;28;20218;-64
2022/09/27 08:14:29;;;;;;;2.10;2.00;;;13.10;99.90;;;;;;5029773;28;20203;-63
2022/09/27 08:16:55;;;;;;;3.40;1.87;;;13.10;99.90;;;;;;5022282;28;20185;-64
2022/09/27 08:19:20;;;;;;;2.40;2.00;;;13.10;99.90;;;;;;5020671;28;20207;-64
2022/09/27 08:21:46;;;;;;;1.93;1.80;;;13.10;99.90;;;;;;5026594;28;20185;-63
2022/09/27 08:24:12;;;;;;;2.10;1.97;;;13.10;99.90;;;;;;5038913;28;20214;-62
2022/09/27 08:26:38;;;;;;;3.73;2.30;;;13.10;99.90;;;;;;5015397;28;21062;-63
2022/09/27 08:29:03;;;;;;;2.30;2.20;;;13.10;99.90;;;;;;5016422;28;20219;-62
2022/09/27 08:31:29;;;;;;;3.33;2.83;;;13.10;99.90;;;;;;5017432;28;20198;-65
2022/09/27 08:33:55;;;;;;;7.20;1.90;;;13.10;99.90;;;;;;5015945;28;20230;-66
2022/09/27 08:36:21;;;;;;;2.80;2.30;;;13.10;99.90;;;;;;5026591;28;20356;-64
2022/09/27 08:38:48;;;;;;;2.23;1.83;;;13.10;99.90;;;;;;5024882;28;20195;-67
2022/09/27 08:41:32;;;;;;;1.77;1.63;;;13.20;99.90;;;;;;5013448;28;20238;-63
2022/09/27 08:44:18;;;;;;;3.13;2.00;;;13.20;99.90;;;;;;5014876;28;20232;-64
2022/09/27 08:47:02;;;;;;;2.07;1.97;;;13.30;99.90;;;;;;5018211;28;20316;-62
2022/09/27 08:49:49;;;;;;;2.53;1.90;;;13.40;99.90;;;;;;5018659;28;20229;-67
2022/09/27 08:52:26;;;;;;;2.00;1.70;;;13.50;99.90;;;;;;5029165;28;20783;-62
2022/09/27 08:54:52;;;;;;;2.47;1.90;;;13.50;99.90;;;;;;5012716;28;20227;-65
2022/09/27 08:57:18;;;;;;;3.23;1.97;;;13.60;99.90;;;;;;5028053;28;20237;-67
2022/09/27 08:59:56;;;;;;;2.17;2.00;;;13.70;99.90;;;;;;5035592;28;20207;-66
2022/09/27 09:02:24;;;;;;;1.90;1.80;;;13.70;99.90;;;;;;5019325;28;20623;-65
2022/09/27 09:04:54;;;;;;;3.50;2.57;;;13.80;99.90;;;;;;5026436;28;20736;-63
2022/09/27 09:07:39;;;;;;;2.43;2.23;;;13.80;99.90;;;;;;5032827;28;20227;-63
2022/09/27 09:13:27;;;;;;;4.23;1.97;;;13.80;99.90;;;;;;5013692;28;20307;-63
2022/09/27 09:16:32;;;;;;;2.13;1.97;;;13.90;99.90;;;;;;5016471;28;20211;-63
2022/09/27 09:19:41;;;;;;;4.80;2.33;;;13.90;99.90;;;;;;5023637;28;20276;-63
2022/09/27 09:22:27;;;;;;;2.07;1.87;;;13.90;99.90;;;;;;5039761;28;20930;-68
2022/09/27 09:25:32;;;;;;;1.63;1.53;;;13.90;99.90;;;;;;5018611;28;20203;-66
2022/09/27 09:28:32;;;;;;;2.17;2.07;;;14.00;99.90;;;;;;5009804;28;20492;-67
2022/09/27 09:31:06;;;;;;;2.90;2.30;;;14.10;99.90;;;;;;5004620;28;20211;-68
2022/09/27 09:33:44;;;;;;;2.53;2.33;;;14.20;99.90;;;;;;5025346;28;20190;-65
2022/09/27 09:36:15;;;;;;;2.63;2.13;;;14.30;99.90;;;;;;5015140;28;20212;-64
2022/09/27 09:38:46;;;;;;;2.63;1.80;;;14.40;99.90;;;;;;5017580;28;20682;-69
2022/09/27 09:41:37;;;;;;;3.00;2.40;;;14.40;99.90;;;;;;5015249;28;20258;-69
2022/09/27 09:44:15;;;;;;;2.90;2.60;;;14.50;99.90;;;;;;5014248;28;20281;-67
2022/09/27 09:46:44;;;;;;;2.10;1.90;;;14.50;99.90;;;;;;5018150;28;20187;-66
2022/09/27 09:49:21;;;;;;;2.13;1.90;;;14.40;99.90;;;;;;5035433;28;20211;-65
2022/09/27 09:52:00;;;;;;;2.30;2.00;;;14.40;99.90;;;;;;5031927;28;20227;-65
2022/09/27 09:54:31;;;;;;;3.87;2.70;;;14.20;99.90;;;;;;5019211;28;20203;-66
2022/09/27 09:57:05;;;;;;;2.80;2.60;;;14.30;99.90;;;;;;5025016;28;20270;-66
2022/09/27 09:59:46;;;;;;;1.93;1.80;;;14.40;99.90;;;;;;5023400;28;20191;-66
2022/09/27 10:02:35;;;;;;;5.30;1.97;;;14.50;99.90;;;;;;5011668;28;20209;-66
2022/09/27 10:05:01;;;;;;;2.17;2.07;;;14.40;99.90;;;;;;5023412;28;20473;-69
2022/09/27 10:07:28;;;;;;;1.83;1.73;;;14.30;99.90;;;;;;5029303;28;20187;-66
2022/09/27 10:09:58;;;;;;;4.37;2.60;;;14.20;99.90;;;;;;5035566;28;20203;-68
2022/09/27 10:12:24;;;;;;;2.63;2.30;;;14.20;99.90;;;;;;5027139;28;20270;-66
2022/09/27 10:14:52;;;;;;;2.00;1.90;;;14.20;99.90;;;;;;5027606;28;20348;-65
2022/09/27 10:17:24;;;;;;;1.80;1.70;;;14.20;99.90;;;;;;5020097;28;20584;-67
2022/09/27 10:19:53;;;;;;;2.60;1.93;;;14.30;99.90;;;;;;5026538;28;20247;-67
2022/09/27 10:22:31;;;;;;;2.13;1.93;;;14.30;99.90;;;;;;5035067;28;20203;-82
2022/09/27 10:25:02;;;;;;;5.37;2.80;;;14.40;99.90;;;;;;5031026;28;20203;-64
2022/09/27 10:27:42;;;;;;;4.73;2.30;;;14.30;99.90;;;;;;5031758;28;20191;-64
2022/09/27 10:30:22;;;;;;;2.13;2.00;;;14.30;99.90;;;;;;5018594;28;20608;-64
2022/09/27 10:32:52;;;;;;;4.10;2.23;;;14.20;99.90;;;;;;5028561;28;20187;-64
2022/09/27 10:35:20;;;;;;;3.73;2.40;;;14.00;99.90;;;;;;5032561;28;20423;-64
2022/09/27 10:37:46;;;;;;;2.43;2.23;;;14.00;99.90;;;;;;5047349;28;20195;-65
2022/09/27 10:40:30;;;;;;;2.97;2.40;;;14.10;99.90;;;;;;5035944;28;20195;-68
2022/09/27 10:42:56;;;;;;;2.53;2.33;;;14.10;99.90;;;;;;5040827;28;20509;-70
2022/09/27 10:45:32;;;;;;;3.40;2.23;;;14.10;99.90;;;;;;5037050;28;20263;-68
2022/09/27 10:48:00;;;;;;;2.67;2.43;;;14.10;99.90;;;;;;5031844;28;20195;-67
2022/09/27 10:50:31;;;;;;;3.60;2.53;;;14.30;99.90;;;;;;5038247;28;20199;-66
2022/09/27 10:53:06;;;;;;;2.53;2.33;;;14.50;99.90;;;;;;5015413;28;20323;-65
2022/09/27 10:55:34;;;;;;;1.97;1.87;;;14.70;99.90;;;;;;5020925;28;20202;-66
2022/09/27 10:58:01;;;;;;;2.40;2.20;;;14.90;99.90;;;;;;5027988;28;20195;-66
2022/09/27 11:00:31;;;;;;;2.70;1.97;;;14.90;99.90;;;;;;5034705;28;20203;-66
2022/09/27 11:03:01;;;;;;;2.17;2.07;;;14.80;99.90;;;;;;5033023;28;20261;-66
2022/09/27 11:05:32;;;;;;;2.23;2.00;;;14.70;99.90;;;;;;5029246;28;20204;-66
2022/09/27 11:08:01;;;;;;;2.37;2.10;;;14.70;99.90;;;;;;5029072;28;20564;-65
2022/09/27 11:10:36;;;;;;;2.33;2.13;;;14.60;99.90;;;;;;5038572;28;20215;-73
2022/09/27 11:13:07;;;;;;;2.47;1.93;;;14.60;99.90;;;;;;5029884;28;21073;-73
2022/09/27 11:15:46;;;;;;;3.40;2.03;;;14.50;99.90;;;;;;5037393;28;20199;-67
2022/09/27 11:18:40;;;;;;;2.80;2.00;;;14.70;99.90;;;;;;5015692;28;20278;-64
2022/09/27 11:21:11;;;;;;;2.67;2.07;;;14.90;99.90;;;;;;5024577;28;20210;-65
2022/09/27 11:24:03;;;;;;;2.00;1.90;;;15.10;99.90;;;;;;5034568;28;20378;-65
2022/09/27 11:26:42;;;;;;;3.37;1.90;;;15.30;99.90;;;;;;5019606;28;20674;-66
2022/09/27 11:29:13;;;;;;;3.13;2.40;;;15.40;99.90;;;;;;5026056;28;20183;-66
2022/09/27 11:31:49;;;;;;;3.27;1.80;;;15.40;99.90;;;;;;5025630;28;20203;-66
2022/09/27 11:34:53;;;;;;;2.87;2.57;;;15.50;99.90;;;;;;5018788;28;20725;-65
2022/09/27 11:37:29;;;;;;;3.97;2.27;;;15.30;99.90;;;;;;5023936;28;20182;-65
2022/09/27 11:40:00;;;;;;;2.87;2.47;;;15.00;99.90;;;;;;5025392;28;20312;-66
2022/09/27 11:42:57;;;;;;;3.63;3.10;;;14.70;99.90;;;;;;5026086;28;20245;-65
2022/09/27 11:45:33;;;;;;;2.50;1.77;;;14.30;99.90;;;;;;5021483;28;20214;-66
2022/09/27 11:48:22;;;;;;;1.17;0.90;;;12.80;99.90;;;;;;5018878;28;20195;-66
2022/09/27 11:51:20;;;;;;;2.07;1.33;;;11.90;99.90;;;;;;5020896;28;20225;-65
2022/09/27 11:54:04;;;;;;;1.30;1.20;;;11.50;99.90;;;;;;5022169;28;20662;-66
2022/09/27 11:57:07;;;;;;;1.27;1.03;;;11.10;99.90;;;;;;5015986;28;20286;-68
2022/09/27 11:59:41;;;;;;;3.53;1.33;;;11.10;99.90;;;;;;5030146;28;20234;-66
2022/09/27 12:02:30;;;;;;;2.50;1.93;;;11.00;99.90;;;;;;5016239;28;20192;-66
2022/09/27 12:05:19;;;;;;;1.97;1.83;;;11.20;99.90;;;;;;5024830;28;20202;-64
2022/09/27 12:08:22;;;;;;;2.53;2.17;;;11.10;99.90;;;;;;5017358;28;20237;-64
2022/09/27 12:10:53;;;;;;;2.40;2.10;;;11.20;99.90;;;;;;5027615;28;20208;-64
2022/09/27 12:13:31;;;;;;;3.27;2.20;;;11.30;99.90;;;;;;5026112;28;20298;-64
2022/09/27 12:15:58;;;;;;;3.50;2.27;;;11.30;99.90;;;;;;5024220;28;20269;-65
2022/09/27 12:18:31;;;;;;;2.00;1.83;;;11.50;99.90;;;;;;5026726;28;20193;-64
2022/09/27 12:21:01;;;;;;;2.10;1.93;;;11.60;99.90;;;;;;5021033;28;20204;-64
2022/09/27 12:23:37;;;;;;;3.10;2.47;;;11.60;99.90;;;;;;5031982;28;20217;-65
2022/09/27 12:26:12;;;;;;;2.73;2.40;;;11.70;99.90;;;;;;5017606;28;20196;-65
2022/09/27 12:28:51;;;;;;;2.47;1.90;;;11.70;99.90;;;;;;5016052;28;20204;-64
2022/09/27 12:31:54;;;;;;;2.63;2.30;;;11.60;99.90;;;;;;5022048;28;20236;-63
2022/09/27 12:34:36;;;;;;;3.53;2.47;;;11.60;99.90;;;;;;5024342;28;20229;-64
2022/09/27 12:37:04;;;;;;;4.70;2.97;;;11.70;99.90;;;;;;5025468;28;20198;-64
2022/09/27 12:39:56;;;;;;;3.27;2.40;;;12.20;99.90;;;;;;5027759;28;20202;-64
2022/09/27 12:42:30;;;;;;;2.73;2.40;;;12.60;99.90;;;;;;5014955;28;20201;-64
2022/09/27 12:44:56;;;;;;;2.73;2.53;;;12.80;99.90;;;;;;5015291;28;20216;-66
2022/09/27 12:47:43;;;;;;;2.57;2.37;;;12.80;99.90;;;;;;5024924;28;20189;-65
2022/09/27 12:50:34;;;;;;;3.40;1.80;;;12.70;99.90;;;;;;5016990;28;20194;-70
2022/09/27 12:53:14;;;;;;;2.83;2.50;;;12.40;99.90;;;;;;5022265;28;20679;-64
2022/09/27 12:55:54;;;;;;;4.43;2.73;;;12.20;99.90;;;;;;5020926;28;20202;-64
2022/09/27 12:58:49;;;;;;;2.03;1.87;;;12.20;99.90;;;;;;5017234;28;20789;-64
2022/09/27 13:01:49;;;;;;;2.63;2.00;;;12.10;99.90;;;;;;5020804;28;20436;-64
2022/09/27 13:04:47;;;;;;;2.17;2.07;;;12.10;99.90;;;;;;5015958;28;20273;-64
2022/09/27 13:07:34;;;;;;;5.90;4.37;;;12.20;99.90;;;;;;5011351;28;20182;-65
2022/09/27 13:10:18;;;;;;;3.73;3.00;;;12.50;99.90;;;;;;5020439;28;20688;-67
2022/09/27 13:12:53;;;;;;;1.87;1.77;;;12.60;99.90;;;;;;5021373;28;21180;-65
2022/09/27 13:15:42;;;;;;;2.10;2.00;;;12.30;99.90;;;;;;5026281;28;20203;-65
2022/09/27 13:18:37;;;;;;;2.13;2.03;;;12.40;99.90;;;;;;5024379;28;20276;-66